createdAt,value
2022-08-09T00:01:19.762Z,6.90
2022-08-09T00:04:05.800Z,5.80
2022-08-09T00:06:36.440Z,5.70
2022-08-09T00:09:04.117Z,6.10
2022-08-09T00:11:58.606Z,7.40
2022-08-09T00:14:21.925Z,6.30
2022-08-09T00:16:58.268Z,5.00
2022-08-09T00:19:27.572Z,6.00
2022-08-09T00:21:57.025Z,9.20
2022-08-09T00:24:27.431Z,6.00
2022-08-09T00:26:57.367Z,6.30
2022-08-09T00:30:10.270Z,8.90
2022-08-09T00:32:26.793Z,8.90
2022-08-09T00:35:03.223Z,5.50
2022-08-09T00:37:32.433Z,9.00
2022-08-09T00:40:12.431Z,7.60
2022-08-09T00:44:19.572Z,6.30
2022-08-09T00:45:34.735Z,7.00
2022-08-09T00:48:04.873Z,6.20
2022-08-09T00:50:34.225Z,7.50
2022-08-09T00:53:10.435Z,5.70
2022-08-09T00:56:04.808Z,5.40
2022-08-09T00:58:31.134Z,5.80
2022-08-09T01:00:59.613Z,5.30
2022-08-09T01:03:54.856Z,5.30
2022-08-09T01:06:53.175Z,6.80
2022-08-09T01:09:37.174Z,5.00
2022-08-09T01:12:47.367Z,6.70
2022-08-09T01:15:24.268Z,5.10
2022-08-09T01:17:58.832Z,7.10
2022-08-09T01:20:41.115Z,5.90
2022-08-09T01:24:02.975Z,8.10
2022-08-09T01:26:46.282Z,4.90
2022-08-09T01:29:41.103Z,4.70
2022-08-09T01:32:31.397Z,7.30
2022-08-09T01:35:28.418Z,5.00
2022-08-09T01:38:07.872Z,7.40
2022-08-09T01:40:53.075Z,5.90
2022-08-09T01:46:27.379Z,5.30
2022-08-09T01:49:10.849Z,4.70
2022-08-09T01:51:53.095Z,5.20
2022-08-09T01:54:32.935Z,6.90
2022-08-09T01:57:10.697Z,5.40
2022-08-09T01:59:52.358Z,9.50
2022-08-09T02:02:30.083Z,5.80
2022-08-09T02:05:11.745Z,7.30
2022-08-09T02:08:40.230Z,4.60
2022-08-09T02:10:51.146Z,6.00
2022-08-09T02:13:22.053Z,5.10
2022-08-09T02:15:56.418Z,8.50
2022-08-09T02:18:28.837Z,6.90
2022-08-09T02:21:02.844Z,5.90
2022-08-09T02:23:40.136Z,6.40
2022-08-09T02:26:26.834Z,5.50
2022-08-09T02:29:00.210Z,4.00
2022-08-09T02:31:36.232Z,7.20
2022-08-09T02:34:41.014Z,6.20
2022-08-09T02:37:14.723Z,4.60
2022-08-09T02:39:49.633Z,5.00
2022-08-09T02:42:24.861Z,7.70
2022-08-09T02:44:56.861Z,7.10
2022-08-09T02:47:26.340Z,6.30
2022-08-09T02:50:09.418Z,5.50
2022-08-09T02:52:44.869Z,5.70
2022-08-09T02:55:21.035Z,7.90
2022-08-09T02:58:00.299Z,7.40
2022-08-09T03:00:57.741Z,5.40
2022-08-09T03:03:37.329Z,6.70
2022-08-09T03:06:18.415Z,7.40
2022-08-09T03:08:52.829Z,6.70
2022-08-09T03:12:04.877Z,9.50
2022-08-09T03:14:12.848Z,8.00
2022-08-09T03:16:44.812Z,8.40
2022-08-09T03:19:58.884Z,5.50
2022-08-09T03:22:06.072Z,10.50
2022-08-09T03:24:42.548Z,6.00
2022-08-09T03:27:21.617Z,4.90
2022-08-09T03:29:57.571Z,6.00
2022-08-09T03:32:31.387Z,4.70
2022-08-09T03:35:00.368Z,7.10
2022-08-09T03:37:56.377Z,6.40
2022-08-09T03:40:18.075Z,5.90
2022-08-09T03:42:46.614Z,5.30
2022-08-09T03:45:15.482Z,11.00
2022-08-09T03:47:46.691Z,9.70
2022-08-09T03:50:28.029Z,14.30
2022-08-09T03:53:03.103Z,11.70
2022-08-09T03:55:36.185Z,10.00
2022-08-09T03:58:16.394Z,9.60
2022-08-09T04:00:45.665Z,7.30
2022-08-09T04:03:24.554Z,7.70
2022-08-09T04:06:04.670Z,6.00
2022-08-09T04:08:33.548Z,5.50
2022-08-09T04:11:02.030Z,7.40
2022-08-09T04:14:37.231Z,6.40
2022-08-09T04:16:21.237Z,5.20
2022-08-09T04:18:51.241Z,6.10
2022-08-09T04:21:19.571Z,7.20
2022-08-09T04:23:53.874Z,6.80
2022-08-09T04:26:23.431Z,7.20
2022-08-09T04:28:52.385Z,7.30
2022-08-09T04:31:22.729Z,9.30
2022-08-09T04:33:56.713Z,7.00
2022-08-09T04:36:28.583Z,7.40
2022-08-09T04:38:59.857Z,7.30
2022-08-09T04:41:32.955Z,8.60
2022-08-09T04:44:11.114Z,7.10
2022-08-09T04:46:58.669Z,7.50
2022-08-09T04:49:53.296Z,8.70
2022-08-09T04:52:26.475Z,8.30
2022-08-09T04:54:57.386Z,11.60
2022-08-09T04:57:26.160Z,7.10
2022-08-09T04:59:55.519Z,7.30
2022-08-09T05:02:27.230Z,8.40
2022-08-09T05:04:56.111Z,9.50
2022-08-09T05:07:25.213Z,7.80
2022-08-09T05:09:57.662Z,7.00
2022-08-09T05:12:26.720Z,4.70
2022-08-09T05:14:54.312Z,6.50
2022-08-09T05:18:38.208Z,8.90
2022-08-09T05:20:11.175Z,6.30
2022-08-09T05:23:56.698Z,6.60
2022-08-09T05:25:28.313Z,8.70
2022-08-09T05:28:00.588Z,5.40
2022-08-09T05:30:30.087Z,6.90
2022-08-09T05:33:00.575Z,6.50
2022-08-09T05:35:29.799Z,7.20
2022-08-09T05:37:59.561Z,6.70
2022-08-09T05:40:28.671Z,12.30
2022-08-09T05:42:57.389Z,10.20
2022-08-09T05:45:25.680Z,5.90
2022-08-09T05:48:11.406Z,6.30
2022-08-09T05:50:51.128Z,6.10
2022-08-09T05:53:33.187Z,5.90
2022-08-09T05:56:01.846Z,5.70
2022-08-09T05:58:29.612Z,7.00
2022-08-09T06:00:58.510Z,5.80
2022-08-09T06:03:44.195Z,4.20
2022-08-09T06:06:14.533Z,5.50
2022-08-09T06:08:42.249Z,6.10
2022-08-09T06:11:17.307Z,5.60
2022-08-09T06:13:47.466Z,4.90
2022-08-09T06:16:16.247Z,4.70
2022-08-09T06:18:44.158Z,5.50
2022-08-09T06:21:12.311Z,7.00
2022-08-09T06:23:55.467Z,9.90
2022-08-09T06:26:28.641Z,6.70
2022-08-09T06:29:00.823Z,5.80
2022-08-09T06:31:40.050Z,5.90
2022-08-09T06:34:26.302Z,11.90
2022-08-09T06:36:59.794Z,5.10
2022-08-09T06:39:48.739Z,5.40
2022-08-09T06:42:24.862Z,6.70
2022-08-09T06:44:58.024Z,3.60
2022-08-09T06:47:30.309Z,6.80
2022-08-09T06:50:14.671Z,8.00
2022-08-09T06:52:48.561Z,9.60
2022-08-09T06:55:22.456Z,9.20
2022-08-09T06:58:02.775Z,5.60
2022-08-09T07:00:48.872Z,7.80
2022-08-09T07:03:27.756Z,5.10
2022-08-09T07:06:04.058Z,4.30
2022-08-09T07:08:34.789Z,5.00
2022-08-09T07:11:06.746Z,7.20
2022-08-09T07:13:45.201Z,5.40
2022-08-09T07:16:41.668Z,6.30
2022-08-09T07:19:15.675Z,4.80
2022-08-09T07:21:57.831Z,5.10
2022-08-09T07:24:32.815Z,8.20
2022-08-09T07:27:33.145Z,8.30
2022-08-09T07:30:00.036Z,9.30
2022-08-09T07:32:33.680Z,6.80
2022-08-09T07:35:08.003Z,4.70
2022-08-09T07:37:44.584Z,5.80
2022-08-09T07:40:18.769Z,6.20
2022-08-09T07:42:50.283Z,5.90
2022-08-09T07:45:23.781Z,6.90
2022-08-09T07:48:07.590Z,4.70
2022-08-09T07:51:09.507Z,6.50
2022-08-09T07:54:04.402Z,8.10
2022-08-09T07:56:28.769Z,6.90
2022-08-09T07:58:59.809Z,8.30
2022-08-09T08:01:32.960Z,8.20
2022-08-09T08:04:02.925Z,7.60
2022-08-09T08:06:32.682Z,6.70
2022-08-09T08:09:05.314Z,8.70
2022-08-09T08:12:09.796Z,4.90
2022-08-09T08:14:25.848Z,6.00
2022-08-09T08:17:07.690Z,5.20
2022-08-09T08:19:36.907Z,12.40
2022-08-09T08:22:05.380Z,12.30
2022-08-09T08:24:40.230Z,7.60
2022-08-09T08:27:17.220Z,7.80
2022-08-09T08:29:48.743Z,5.60
2022-08-09T08:32:28.799Z,5.10
2022-08-09T08:34:58.560Z,5.80
2022-08-09T08:37:41.226Z,4.10
2022-08-09T08:40:15.634Z,4.60
2022-08-09T08:42:47.290Z,6.30
2022-08-09T08:45:17.146Z,6.30
2022-08-09T08:48:05.667Z,10.60
2022-08-09T08:50:33.923Z,4.10
2022-08-09T08:53:03.001Z,6.70
2022-08-09T08:55:32.204Z,7.60
2022-08-09T08:58:00.487Z,9.20
2022-08-09T09:00:34.673Z,7.00
2022-08-09T09:03:11.306Z,4.40
2022-08-09T09:05:59.742Z,7.60
2022-08-09T09:08:40.454Z,5.20
2022-08-09T09:11:13.893Z,6.50
2022-08-09T09:13:56.199Z,3.80
2022-08-09T09:16:30.981Z,7.70
2022-08-09T09:22:16.378Z,8.70
2022-08-09T09:24:50.375Z,10.10
2022-08-09T09:28:04.300Z,6.20
2022-08-09T09:30:26.197Z,4.00
2022-08-09T09:33:16.782Z,5.70
2022-08-09T09:36:19.720Z,5.90
2022-08-09T09:38:50.595Z,5.40
2022-08-09T09:41:26.024Z,5.60
2022-08-09T09:44:12.793Z,6.10
2022-08-09T09:46:50.463Z,6.40
2022-08-09T09:49:31.761Z,5.00
2022-08-09T09:52:16.448Z,4.90
2022-08-09T09:55:16.799Z,6.90
2022-08-09T09:58:16.371Z,7.00
2022-08-09T10:00:54.945Z,14.30
2022-08-09T10:03:44.284Z,5.10
2022-08-09T10:06:13.274Z,7.90
2022-08-09T10:08:57.076Z,9.90
2022-08-09T10:12:04.440Z,6.20
2022-08-09T10:14:30.343Z,7.40
2022-08-09T10:17:11.277Z,5.50
2022-08-09T10:19:47.449Z,4.20
2022-08-09T10:22:33.724Z,8.50
2022-08-09T10:25:11.903Z,4.90
2022-08-09T10:27:54.531Z,4.00
2022-08-09T10:34:05.301Z,4.80
2022-08-09T10:36:09.742Z,4.30
2022-08-09T10:38:57.228Z,4.50
2022-08-09T10:41:28.271Z,8.90
2022-08-09T10:43:59.156Z,5.20
2022-08-09T10:47:01.380Z,7.10
2022-08-09T10:49:51.307Z,4.30
2022-08-09T10:52:37.179Z,4.80
2022-08-09T10:55:27.648Z,3.10
2022-08-09T10:57:59.909Z,6.00
2022-08-09T11:00:31.258Z,4.00
2022-08-09T11:03:11.409Z,6.20
2022-08-09T11:06:20.922Z,5.90
2022-08-09T11:08:53.496Z,4.50
2022-08-09T11:11:23.096Z,6.10
2022-08-09T11:14:28.118Z,3.10
2022-08-09T11:16:57.196Z,4.70
2022-08-09T11:20:12.252Z,4.60
2022-08-09T11:22:44.781Z,5.30
2022-08-09T11:25:15.338Z,8.00
2022-08-09T11:28:02.820Z,4.70
2022-08-09T11:30:37.729Z,7.70
2022-08-09T11:33:37.843Z,5.10
2022-08-09T11:36:07.018Z,6.90
2022-08-09T11:38:41.531Z,4.50
2022-08-09T11:41:13.441Z,9.50
2022-08-09T11:43:49.166Z,4.70
2022-08-09T11:46:26.877Z,2.20
2022-08-09T11:49:05.347Z,4.80
2022-08-09T11:53:03.627Z,5.70
2022-08-09T11:55:21.627Z,5.20
2022-08-09T11:58:30.303Z,7.00
2022-08-09T12:01:09.031Z,4.00
2022-08-09T12:03:56.990Z,4.30
2022-08-09T12:06:32.522Z,4.10
2022-08-09T12:09:17.632Z,4.80
2022-08-09T12:12:13.173Z,4.00
2022-08-09T12:15:04.054Z,3.10
2022-08-09T12:17:43.585Z,3.50
2022-08-09T12:20:16.452Z,5.00
2022-08-09T12:23:01.404Z,4.00
2022-08-09T12:25:37.402Z,4.20
2022-08-09T12:29:12.074Z,4.50
2022-08-09T12:31:02.799Z,3.10
2022-08-09T12:33:58.988Z,2.70
2022-08-09T12:36:32.335Z,2.00
2022-08-09T12:39:02.241Z,2.30
2022-08-09T12:41:39.189Z,3.20
2022-08-09T12:44:10.262Z,2.60
2022-08-09T12:46:48.642Z,2.80
2022-08-09T12:49:18.242Z,4.70
2022-08-09T12:52:03.661Z,3.90
2022-08-09T12:56:12.693Z,3.30
2022-08-09T12:57:46.796Z,3.70
2022-08-09T13:00:29.504Z,2.20
2022-08-09T13:03:00.442Z,2.40
2022-08-09T13:06:13.253Z,5.00
2022-08-09T13:08:39.765Z,6.00
2022-08-09T13:11:23.329Z,3.20
2022-08-09T13:14:36.885Z,2.10
2022-08-09T13:16:50.184Z,4.20
2022-08-09T13:20:08.774Z,2.40
2022-08-09T13:22:37.409Z,3.50
2022-08-09T13:25:15.271Z,3.70
2022-08-09T13:27:48.739Z,3.80
2022-08-09T13:30:51.225Z,10.00
2022-08-09T13:33:23.329Z,3.70
2022-08-09T13:36:39.656Z,7.10
2022-08-09T13:38:54.967Z,3.50
2022-08-09T13:41:59.483Z,3.10
2022-08-09T13:44:16.850Z,2.50
2022-08-09T13:47:27.371Z,2.60
2022-08-09T13:49:39.498Z,2.10
2022-08-09T13:52:23.455Z,3.70
2022-08-09T13:55:00.249Z,19.30
2022-08-09T13:57:39.562Z,3.30
2022-08-09T14:00:10.248Z,3.00
2022-08-09T14:03:04.462Z,3.60
2022-08-09T14:06:00.569Z,5.00
2022-08-09T14:08:22.491Z,7.10
2022-08-09T14:10:52.705Z,3.50
2022-08-09T14:14:15.718Z,6.70
2022-08-09T14:16:14.063Z,4.90
2022-08-09T14:18:45.942Z,3.10
2022-08-09T14:21:23.339Z,1.90
2022-08-09T14:23:56.549Z,4.40
2022-08-09T14:26:31.682Z,2.80
2022-08-09T14:29:08.291Z,1.60
2022-08-09T14:31:54.834Z,2.80
2022-08-09T14:34:30.831Z,2.30
2022-08-09T14:37:06.914Z,5.50
2022-08-09T14:39:46.855Z,11.90
2022-08-09T14:42:29.060Z,3.60
2022-08-09T14:46:39.445Z,9.00
2022-08-09T14:47:56.856Z,4.70
2022-08-09T14:50:25.849Z,3.60
2022-08-09T14:52:54.734Z,2.70
2022-08-09T14:55:22.389Z,7.90
2022-08-09T14:57:50.097Z,4.80
2022-08-09T15:00:18.346Z,3.80
2022-08-09T15:02:47.672Z,3.50
2022-08-09T15:05:19.808Z,8.40
2022-08-09T15:07:54.744Z,3.80
2022-08-09T15:10:26.495Z,4.90
2022-08-09T15:12:56.202Z,2.80
2022-08-09T15:15:24.831Z,3.60
2022-08-09T15:17:58.389Z,7.70
2022-08-09T15:21:58.349Z,3.20
2022-08-09T15:24:09.251Z,3.90
2022-08-09T15:26:09.003Z,3.50
2022-08-09T15:28:36.933Z,4.90
2022-08-09T15:31:17.898Z,5.40
2022-08-09T15:34:17.265Z,5.70
2022-08-09T15:36:34.131Z,8.00
2022-08-09T15:39:01.725Z,5.60
2022-08-09T15:41:31.798Z,10.20
2022-08-09T15:44:02.056Z,4.70
2022-08-09T15:46:32.930Z,4.30
2022-08-09T15:49:21.127Z,4.90
2022-08-09T15:52:04.712Z,6.70
2022-08-09T15:54:44.735Z,6.30
2022-08-09T15:57:19.030Z,7.50
2022-08-09T16:00:04.214Z,6.00
2022-08-09T16:02:32.642Z,5.60
2022-08-09T16:05:02.446Z,8.90
2022-08-09T16:07:38.906Z,4.50
2022-08-09T16:10:17.046Z,5.80
2022-08-09T16:12:58.020Z,9.50
2022-08-09T16:16:11.022Z,5.20
2022-08-09T16:18:14.269Z,11.40
2022-08-09T16:20:41.891Z,9.10
2022-08-09T16:23:11.454Z,10.60
2022-08-09T16:25:41.022Z,5.50
2022-08-09T16:28:12.199Z,7.60
2022-08-09T16:30:44.830Z,6.80
2022-08-09T16:33:23.200Z,7.60
2022-08-09T16:35:57.555Z,8.20
2022-08-09T16:38:27.765Z,5.20
2022-08-09T16:40:57.474Z,6.40
2022-08-09T16:43:26.731Z,7.70
2022-08-09T16:45:55.630Z,3.10
2022-08-09T16:48:39.114Z,3.80
2022-08-09T16:51:14.069Z,6.70
2022-08-09T16:54:09.050Z,5.00
2022-08-09T16:56:31.369Z,5.20
2022-08-09T16:59:01.819Z,7.90
2022-08-09T17:01:38.732Z,6.00
2022-08-09T17:04:06.888Z,5.80
2022-08-09T17:08:40.879Z,4.30
2022-08-09T17:09:43.850Z,5.90
2022-08-09T17:12:10.159Z,3.80
2022-08-09T17:14:37.776Z,5.50
2022-08-09T17:17:26.256Z,4.20
2022-08-09T17:20:28.461Z,7.00
2022-08-09T17:22:50.578Z,6.10
2022-08-09T17:25:22.231Z,6.10
2022-08-09T17:27:53.683Z,3.20
2022-08-09T17:30:25.719Z,4.00
2022-08-09T17:33:04.706Z,4.90
2022-08-09T17:35:40.788Z,4.40
2022-08-09T17:38:24.358Z,8.10
2022-08-09T17:40:57.231Z,6.60
2022-08-09T17:43:34.379Z,7.50
2022-08-09T17:46:06.911Z,4.90
2022-08-09T17:48:38.479Z,5.20
2022-08-09T17:51:17.881Z,9.70
2022-08-09T17:53:53.018Z,3.70
2022-08-09T17:56:27.251Z,4.80
2022-08-09T17:59:03.342Z,4.50
2022-08-09T18:01:57.863Z,3.90
2022-08-09T18:04:24.946Z,7.20
2022-08-09T18:06:55.151Z,8.20
2022-08-09T18:09:40.374Z,13.40
2022-08-09T18:12:17.147Z,9.20
2022-08-09T18:14:53.740Z,8.70
2022-08-09T18:17:27.549Z,7.80
2022-08-09T18:20:55.890Z,16.70
2022-08-09T18:23:05.026Z,21.60
2022-08-09T18:25:50.368Z,15.50
2022-08-09T18:30:42.911Z,9.90
2022-08-09T18:31:25.031Z,8.20
2022-08-09T18:34:05.230Z,8.10
2022-08-09T18:36:34.747Z,6.70
2022-08-09T18:39:05.939Z,7.00
2022-08-09T18:41:35.434Z,10.70
2022-08-09T18:44:13.020Z,6.30
2022-08-09T18:46:47.133Z,8.50
2022-08-09T18:49:27.514Z,15.20
2022-08-09T18:52:00.133Z,20.80
2022-08-09T18:54:30.118Z,19.60
2022-08-09T18:57:06.113Z,27.70
2022-08-09T18:59:48.563Z,32.20
2022-08-09T19:02:20.445Z,22.00
2022-08-09T19:05:14.916Z,15.30
2022-08-09T19:07:39.476Z,12.10
2022-08-09T19:10:13.967Z,15.00
2022-08-09T19:12:52.943Z,8.40
2022-08-09T19:15:34.580Z,6.00
2022-08-09T19:18:05.587Z,6.70
2022-08-09T19:20:39.079Z,8.90
2022-08-09T19:23:08.746Z,10.20
2022-08-09T19:26:02.041Z,4.90
2022-08-09T19:28:34.738Z,8.50
2022-08-09T19:31:07.663Z,7.80
2022-08-09T19:33:35.999Z,6.80
2022-08-09T19:36:04.981Z,8.50
2022-08-09T19:38:34.908Z,9.20
2022-08-09T19:41:07.383Z,10.50
2022-08-09T19:44:00.967Z,12.40
2022-08-09T19:46:34.271Z,8.00
2022-08-09T19:50:09.027Z,10.30
2022-08-09T19:51:55.220Z,9.20
2022-08-09T19:54:25.422Z,12.10
2022-08-09T19:56:54.838Z,6.50
2022-08-09T19:59:57.602Z,10.70
2022-08-09T20:02:36.244Z,8.10
2022-08-09T20:05:02.011Z,13.50
2022-08-09T20:07:57.078Z,7.90
2022-08-09T20:10:36.446Z,11.30
2022-08-09T20:13:07.813Z,14.70
2022-08-09T20:16:37.460Z,11.10
2022-08-09T20:18:28.059Z,12.10
2022-08-09T20:20:57.211Z,9.70
2022-08-09T20:23:38.460Z,8.90
2022-08-09T20:26:12.999Z,9.20
2022-08-09T20:31:18.665Z,12.60
2022-08-09T20:33:52.400Z,10.20
2022-08-09T20:36:27.244Z,9.00
2022-08-09T20:40:13.554Z,8.60
2022-08-09T20:41:43.342Z,10.40
2022-08-09T20:44:11.189Z,13.60
2022-08-09T20:46:43.048Z,9.60
2022-08-09T20:49:15.712Z,11.30
2022-08-09T20:51:45.412Z,11.60
2022-08-09T20:54:19.025Z,9.30
2022-08-09T20:56:49.765Z,9.20
2022-08-09T20:59:50.249Z,8.80
2022-08-09T21:02:12.178Z,9.70
2022-08-09T21:05:54.620Z,11.90
2022-08-09T21:07:40.418Z,9.80
2022-08-09T21:10:10.961Z,11.90
2022-08-09T21:12:39.722Z,8.00
2022-08-09T21:15:12.957Z,9.40
2022-08-09T21:18:21.268Z,9.80
2022-08-09T21:20:31.204Z,12.20
2022-08-09T21:23:00.948Z,9.10
2022-08-09T21:25:56.035Z,8.30
2022-08-09T21:28:33.260Z,8.80
2022-08-09T21:31:17.343Z,11.80
2022-08-09T21:33:51.082Z,10.00
2022-08-09T21:36:23.033Z,8.90
2022-08-09T21:38:57.925Z,9.90
2022-08-09T21:42:04.514Z,9.90
2022-08-09T21:44:33.206Z,8.30
2022-08-09T21:47:04.907Z,10.60
2022-08-09T21:49:39.475Z,9.80
2022-08-09T21:52:16.723Z,9.30
2022-08-09T21:54:53.667Z,10.40
2022-08-09T21:57:38.250Z,8.30
2022-08-09T22:00:25.710Z,12.20
2022-08-09T22:02:59.181Z,10.00
2022-08-09T22:05:37.002Z,8.40
2022-08-09T22:08:14.807Z,8.40
2022-08-09T22:11:00.956Z,10.10
2022-08-09T22:13:35.593Z,7.90
2022-08-09T22:16:07.453Z,8.90
2022-08-09T22:18:52.258Z,8.90
2022-08-09T22:21:27.405Z,11.40
2022-08-09T22:24:16.713Z,11.20
2022-08-09T22:26:51.050Z,7.10
2022-08-09T22:29:28.982Z,10.60
2022-08-09T22:32:00.326Z,10.70
2022-08-09T22:34:28.223Z,11.40
2022-08-09T22:36:58.431Z,10.20
2022-08-09T22:39:57.229Z,8.50
2022-08-09T22:42:21.380Z,9.40
2022-08-09T22:48:05.001Z,8.90
2022-08-09T22:48:14.694Z,9.10
2022-08-09T22:50:30.667Z,10.80
2022-08-09T22:52:59.769Z,11.40
2022-08-09T22:56:06.273Z,9.00
2022-08-09T22:58:33.062Z,9.80
2022-08-09T23:01:03.081Z,13.20
2022-08-09T23:04:04.093Z,9.40
2022-08-09T23:06:29.886Z,11.00
2022-08-09T23:09:06.984Z,10.80
2022-08-09T23:11:35.103Z,11.60
2022-08-09T23:14:03.979Z,12.60
2022-08-09T23:16:31.920Z,12.70
2022-08-09T23:19:00.814Z,10.30
2022-08-09T23:21:33.958Z,11.20
2022-08-09T23:24:07.109Z,12.00
2022-08-09T23:26:36.490Z,7.80
2022-08-09T23:29:13.814Z,11.70
2022-08-09T23:31:42.097Z,10.20
2022-08-09T23:34:09.900Z,11.70
2022-08-09T23:36:37.717Z,9.60
2022-08-09T23:39:07.651Z,9.50
2022-08-09T23:41:35.496Z,11.50
2022-08-09T23:44:04.388Z,8.10
2022-08-09T23:46:32.943Z,10.70
2022-08-09T23:49:01.254Z,8.10
2022-08-09T23:51:29.198Z,8.60
2022-08-09T23:54:02.732Z,12.40
2022-08-09T23:56:52.064Z,10.30
2022-08-09T23:59:21.397Z,9.50
